الصفحة الرئيسية
METAR-TAF:

METAR-TAF

مطار :

NWS Office

بونبي, مايكرونيزيا

دائرة عرض: 06-58N, خط طول: 158-13E, ارتفاع: 39 متر

مراقبة الطقس الحالي

تاريخ ووقت الإصدار 46 دقيقة قبل الساعة 13:56UTC
ريح 8 عقدة من الشرق
درجة الحرارة 28°درجة مئوية
الرطوبة 84%
ضغط 1012 hPa
الرؤية: 22.5 كم
غيوم مفككة على ارتفاع 1700 قدم, مزن ركامية عمودية.
غيوم مفككة على ارتفاع 13000 قدم
ملبد بالغيوم على ارتفاع 30000 قدم
زخات من الأمطار الخفيفة

METAR: PTTP 161356Z 09008KT 14SM -SHRA BKN017TCU BKN130 OVC300 28/25 A2988 RMK SHRAB52 TCU ALQDS SLP118 T02840253

زمن: 01:42 (14:42 UTC)


TAF: مفقودة

أرصاد الطقس والتوقعات من أكثر من 4000 مطار (تقارير الطقس للمطار METAR والتنبؤ بالطقس بالمطارTAF).

المحطات المتاحة هي النقط الصفراء والحمراء على الخريطة.

حرك المؤشر فوق النقطة لمعرفة اسم المحطة.

ثم انقر لمعرفة أرصاد وتوقعات الطقس.

لتغيير الخارطة: اضغط على الأزرار الخضراء مع رمز الصليب الأسود للتكبير. على الزر الأخضر مع شرطة للتصغير، أو على الأسهم الخضراء للخرائط المجاورة.


METAR-TAF: